Terminal Aerodrome Forecast
Issued by NWS Duluth, MN

Home | Current Version | Previous Version | Text Only | Print | Product List | Glossary On
Versions: 1 2 3 4 5 6 7 8 9 10 11 12 13 14 15 16 17 18 19 20
000
FTUS43 KDLH 231000 AAA
TAFINL
TAF AMD
KINL 231005Z 2310/2406 05006KT 3SM BR OVC004
      TEMPO 2310/2314 1/4SM -DZ FG OVC002
     FM231600 02009G14KT 4SM -SN BR OVC011
     FM240000 35008KT 6SM -SN BR OVC009=

USA.gov is the U.S. government's official web portal to all federal, state and local government web resources and services.